Time;durP1;ratioP1;P1;durP2;ratioP2;P2;SDS_P1;SDS_P2;PMS_P1;PMS_P2;Temp;Humidity;BMP_temperature;BMP_pressure;BME280_temperature;BME280_humidity;BME280_pressure;Samples;Min_cycle;Max_cycle;Signal;HPM_P1;HPM_P2
2022/01/22 00:00:54;;;;;;;13.60;9.10;;;;;;;-2.77;100.00;99015.41;105178;1271;70493;-73
2022/01/22 00:03:20;;;;;;;14.00;7.40;;;;;;;-2.76;100.00;99010.89;105190;1271;73127;-73
2022/01/22 00:05:48;;;;;;;10.30;6.20;;;;;;;-2.76;100.00;99012.63;104944;1271;62181;-75
2022/01/22 00:08:15;;;;;;;11.60;6.10;;;;;;;-2.75;100.00;99020.77;105352;1271;62133;-74
2022/01/22 00:10:44;;;;;;;11.70;6.80;;;;;;;-2.74;100.00;99023.21;105180;1271;77262;-73
2022/01/22 00:15:45;;;;;;;12.50;6.60;;;;;;;-2.72;100.00;99015.70;105229;1271;73397;-74
2022/01/22 00:18:12;;;;;;;12.20;7.60;;;;;;;-2.71;100.00;99010.14;105046;1272;62264;-73
2022/01/22 00:20:39;;;;;;;14.00;8.10;;;;;;;-2.70;100.00;99009.77;105130;1271;62014;-73
2022/01/22 00:23:06;;;;;;;14.30;6.70;;;;;;;-2.69;100.00;99010.44;105293;1271;77040;-73
2022/01/22 00:25:33;;;;;;;10.60;6.40;;;;;;;-2.68;100.00;99007.30;104944;1274;70406;-75
2022/01/22 00:28:01;;;;;;;14.00;8.10;;;;;;;-2.68;100.00;99007.65;104865;1272;74471;-74
2022/01/22 00:30:28;;;;;;;11.50;6.20;;;;;;;-2.68;100.00;99009.73;105233;1271;62045;-73
2022/01/22 00:32:55;;;;;;;11.00;6.60;;;;;;;-2.68;100.00;99008.35;105027;1271;62106;-73
2022/01/22 00:35:23;;;;;;;15.60;8.90;;;;;;;-2.67;100.00;99007.98;105216;1271;75939;-75
2022/01/22 00:37:52;;;;;;;13.00;7.80;;;;;;;-2.67;100.00;99012.48;105267;1271;70576;-75
2022/01/22 00:40:19;;;;;;;14.40;7.10;;;;;;;-2.67;100.00;99007.98;105290;1270;73158;-73
2022/01/22 00:42:47;;;;;;;14.40;8.20;;;;;;;-2.67;100.00;99010.06;105182;1271;62094;-74
2022/01/22 00:45:15;;;;;;;17.20;9.40;;;;;;;-2.66;100.00;99010.23;105356;1271;62001;-73
2022/01/22 00:47:42;;;;;;;10.40;7.30;;;;;;;-2.64;100.00;99014.20;105121;1271;76871;-74
2022/01/22 00:50:12;;;;;;;15.10;6.50;;;;;;;-2.63;100.00;99009.14;105174;1271;69491;-74
2022/01/22 00:52:42;;;;;;;;;;;;;;;-2.63;100.00;99005.66;105184;1271;73197;-74
2022/01/22 00:55:10;;;;;;;15.10;8.30;;;;;;;-2.61;100.00;99003.73;105143;1271;62062;-74
2022/01/22 00:57:38;;;;;;;11.10;8.20;;;;;;;-2.61;100.00;99005.64;105143;1271;62160;-76
2022/01/22 01:00:07;;;;;;;12.50;6.90;;;;;;;-2.58;100.00;98998.83;105144;1271;75966;-74
2022/01/22 01:02:35;;;;;;;13.20;7.00;;;;;;;-2.59;100.00;98995.52;105229;1271;70269;-75
2022/01/22 01:05:03;;;;;;;13.60;7.60;;;;;;;-2.57;100.00;98998.64;105177;1271;73224;-75
2022/01/22 01:07:31;;;;;;;10.60;7.60;;;;;;;-2.56;100.00;98995.32;105147;1271;62524;-72
2022/01/22 01:09:59;;;;;;;13.30;7.90;;;;;;;-2.55;100.00;98991.84;105086;1271;153283;-73
2022/01/22 01:12:27;;;;;;;12.40;8.00;;;;;;;-2.56;100.00;98992.35;105321;1271;76161;-75
2022/01/22 01:34:18;;;;;;;15.90;10.50;;;;;;;-2.42;100.00;98976.14;104983;1272;62270;-73
2022/01/22 01:36:47;;;;;;;14.50;11.30;;;;;;;-2.40;100.00;98984.30;105182;1271;62161;-73
2022/01/22 01:39:19;;;;;;;18.20;12.80;;;;;;;-2.39;100.00;98988.98;105201;1271;77042;-74
2022/01/22 01:44:18;;;;;;;12.80;10.80;;;;;;;-2.37;100.00;98997.31;105311;1271;74292;-75
2022/01/22 01:46:47;;;;;;;20.60;11.10;;;;;;;-2.36;100.00;98992.43;105366;1271;62171;-74
2022/01/22 01:49:15;;;;;;;16.30;11.20;;;;;;;-2.36;100.00;98990.84;104501;1271;1003814;-75
2022/01/22 01:51:42;;;;;;;18.00;12.00;;;;;;;-2.34;100.00;98992.02;105049;1271;76996;-73
2022/01/22 01:54:31;;;;;;;14.30;10.60;;;;;;;-2.32;100.00;98993.05;105383;1271;69191;-74
2022/01/22 01:59:47;;;;;;;17.50;10.80;;;;;;;-2.27;100.00;98987.58;105189;1271;62133;-75
2022/01/22 02:02:14;;;;;;;13.30;8.80;;;;;;;-2.24;100.00;98985.27;105199;1271;62110;-74
2022/01/22 02:04:42;;;;;;;13.70;9.30;;;;;;;-2.24;100.00;98983.01;105098;1271;75861;-73
2022/01/22 02:07:10;;;;;;;14.50;9.60;;;;;;;-2.23;100.00;98979.33;105201;1271;69338;-75
2022/01/22 02:09:40;;;;;;;15.60;9.40;;;;;;;-2.20;100.00;98975.28;104955;1271;73172;-74
2022/01/22 02:23:43;;;;;;;9.30;6.50;;;;;;;-2.14;100.00;98986.16;105152;1271;73430;-75
2022/01/22 02:26:12;;;;;;;9.90;8.00;;;;;;;-2.13;100.00;98979.71;105179;1271;62131;-75
2022/01/22 02:28:40;;;;;;;10.60;7.40;;;;;;;-2.12;100.00;98979.68;105285;1271;62470;-74
2022/01/22 02:32:05;;;;;;;12.00;6.30;;;;;;;-2.12;100.00;98979.16;105228;1271;75166;-73
2022/01/22 02:36:29;;;;;;;10.90;6.90;;;;;;;-2.11;100.00;98979.50;105164;1271;73726;-75
2022/01/22 02:39:11;;;;;;;8.70;5.90;;;;;;;-2.11;100.00;98975.84;104957;1271;62095;-75
2022/01/22 02:41:43;;;;;;;9.80;6.20;;;;;;;-2.11;100.00;98979.67;105145;1271;62401;-73
2022/01/22 02:44:24;;;;;;;12.00;6.10;;;;;;;-2.12;100.00;98977.77;105356;1271;77501;-73
2022/01/22 02:46:51;;;;;;;8.90;6.40;;;;;;;-2.12;100.00;98968.55;105174;1271;69459;-74
2022/01/22 02:49:18;;;;;;;10.10;6.40;;;;;;;-2.13;100.00;98966.64;105192;1271;73315;-74
2022/01/22 02:51:44;;;;;;;6.70;5.30;;;;;;;-2.14;100.00;98968.92;105180;1271;62106;-76
2022/01/22 02:54:11;;;;;;;6.90;4.50;;;;;;;-2.14;100.00;98970.85;105219;1271;62075;-74
2022/01/22 02:56:38;;;;;;;8.50;5.10;;;;;;;-2.15;100.00;98970.70;104940;1271;76575;-74
2022/01/22 02:59:04;;;;;;;6.50;5.60;;;;;;;-2.16;100.00;98974.02;105220;1271;70152;-75
2022/01/22 03:01:31;;;;;;;8.80;5.90;;;;;;;-2.19;100.00;98974.40;105168;1271;74199;-74
2022/01/22 03:03:58;;;;;;;9.00;5.30;;;;;;;-2.22;100.00;98976.54;105221;1271;62082;-75
2022/01/22 03:06:25;;;;;;;9.80;5.40;;;;;;;-2.25;100.00;98979.02;105239;1271;61944;-75
2022/01/22 03:08:52;;;;;;;7.70;4.90;;;;;;;-2.27;100.00;98979.92;105000;1271;76055;-75
2022/01/22 03:11:23;;;;;;;9.30;5.70;;;;;;;-2.29;100.00;98979.42;105232;1271;70736;-73
2022/01/22 03:14:36;;;;;;;9.90;5.00;;;;;;;-2.30;100.00;98983.64;105411;1271;73483;-73
2022/01/22 03:19:57;;;;;;;8.20;5.40;;;;;;;-2.35;100.00;98983.52;105199;1271;62053;-76
2022/01/22 03:27:32;;;;;;;11.10;7.00;;;;;;;-2.50;100.00;98983.40;105231;1271;74605;-74
2022/01/22 03:30:00;;;;;;;13.30;7.50;;;;;;;-2.55;100.00;98990.25;105225;1270;62022;-74
2022/01/22 03:32:32;;;;;;;11.30;7.10;;;;;;;-2.59;100.00;98999.35;105221;1271;62130;-72
2022/01/22 03:35:09;;;;;;;10.40;7.70;;;;;;;-2.66;100.00;99000.14;104921;1274;76278;-74
2022/01/22 03:37:38;;;;;;;12.30;8.60;;;;;;;-2.72;100.00;99004.75;104957;1271;69178;-73
2022/01/22 03:40:06;;;;;;;9.80;7.00;;;;;;;-2.76;100.00;99006.37;105264;1271;74376;-73
2022/01/22 03:42:34;;;;;;;14.00;8.10;;;;;;;-2.78;100.00;99004.48;104947;1271;62231;-74
2022/01/22 03:45:07;;;;;;;11.70;7.80;;;;;;;-2.81;100.00;99006.09;105315;1271;62071;-74
2022/01/22 03:47:34;;;;;;;10.50;7.60;;;;;;;-2.82;100.00;99010.79;104930;1274;75530;-75
2022/01/22 03:50:02;;;;;;;12.60;7.70;;;;;;;-2.83;100.00;99015.85;105250;1271;69233;-75
2022/01/22 03:52:28;;;;;;;12.60;9.00;;;;;;;-2.83;100.00;99023.84;104875;1272;74150;-74
2022/01/22 03:54:55;;;;;;;13.90;9.80;;;;;;;-2.83;100.00;99029.77;105199;1271;62115;-74
2022/01/22 03:57:23;;;;;;;13.90;9.80;;;;;;;-2.83;100.00;99029.23;105223;1271;62083;-73
2022/01/22 03:59:52;;;;;;;10.60;8.30;;;;;;;-2.86;100.00;99024.38;104938;1272;75871;-73
2022/01/22 04:05:06;;;;;;;8.70;6.90;;;;;;;-2.97;100.00;99029.91;105196;1271;74251;-74
2022/01/22 04:10:06;;;;;;;10.30;6.60;;;;;;;-3.12;100.00;99036.87;105348;1271;61963;-74
2022/01/22 04:12:46;;;;;;;9.10;6.90;;;;;;;-3.18;100.00;99039.54;105324;1271;76004;-74
2022/01/22 04:15:15;;;;;;;;;;;;;;;-3.24;100.00;99045.00;105213;1271;67391;-74
2022/01/22 04:26:02;;;;;;;13.00;10.00;;;;;;;-3.24;100.00;99041.86;105213;1271;76556;-73
2022/01/22 04:28:28;;;;;;;12.50;10.60;;;;;;;-3.22;100.00;99047.94;104241;1272;1003576;-74
2022/01/22 04:30:55;;;;;;;10.20;8.70;;;;;;;-3.24;100.00;99041.85;105171;1271;74190;-74
2022/01/22 04:33:22;;;;;;;15.30;10.50;;;;;;;-3.24;100.00;99043.42;105241;1271;62167;-73
2022/01/22 04:35:49;;;;;;;13.40;10.40;;;;;;;-3.26;100.00;99044.84;105243;1271;62029;-73
2022/01/22 04:38:15;;;;;;;13.10;9.90;;;;;;;-3.30;100.00;99044.89;105331;1271;76301;-73
2022/01/22 04:40:42;;;;;;;15.60;9.70;;;;;;;-3.34;100.00;99048.21;105295;1271;69152;-75
2022/01/22 04:43:10;;;;;;;15.00;9.40;;;;;;;-3.36;100.00;99050.68;105444;1271;72583;-74
2022/01/22 04:48:27;;;;;;;14.90;9.40;;;;;;;-3.48;100.00;99052.36;105974;1271;62078;-74
2022/01/22 04:56:33;;;;;;;13.90;11.40;;;;;;;-3.59;100.00;99069.14;106174;1271;73311;-75
2022/01/22 04:59:01;;;;;;;12.60;9.80;;;;;;;-3.59;100.00;99076.07;108037;1271;62104;-75
2022/01/22 05:01:29;;;;;;;11.90;9.60;;;;;;;-3.59;100.00;99081.45;108138;1271;60760;-73
2022/01/22 05:03:56;;;;;;;10.10;8.40;;;;;;;-3.57;100.00;99085.44;108139;1271;76043;-74
2022/01/22 05:06:22;;;;;;;11.50;9.00;;;;;;;-3.55;100.00;99082.65;107869;1271;68361;-74
2022/01/22 05:08:49;;;;;;;13.90;10.30;;;;;;;-3.55;100.00;99085.76;106587;1271;73283;-74
2022/01/22 05:11:17;;;;;;;14.00;10.40;;;;;;;-3.59;100.00;99089.27;105211;1271;62079;-74
2022/01/22 05:13:43;;;;;;;13.40;11.10;;;;;;;-3.66;100.00;99100.80;105260;1271;62096;-74
2022/01/22 05:16:10;;;;;;;12.70;9.10;;;;;;;-3.72;100.00;99105.18;105263;1271;76184;-74
2022/01/22 05:18:44;;;;;;;15.20;9.60;;;;;;;-3.80;100.00;99106.98;105245;1271;69499;-76
2022/01/22 05:21:14;;;;;;;17.50;10.50;;;;;;;-3.87;100.00;99109.11;105239;1271;71611;-74
2022/01/22 05:23:43;;;;;;;;;;;;;;;-3.96;100.00;99112.46;105203;1271;62141;-76
2022/01/22 05:26:27;;;;;;;14.70;9.80;;;;;;;-4.04;100.00;99114.95;105122;1271;62098;-75
2022/01/22 05:37:00;;;;;;;15.00;12.40;;;;;;;-4.37;100.00;99137.16;105260;1271;62156;-75
2022/01/22 05:39:29;;;;;;;18.70;12.60;;;;;;;-4.51;100.00;99140.16;105205;1271;62780;-74
2022/01/22 05:41:58;;;;;;;24.20;14.90;;;;;;;-4.67;100.00;99142.30;105212;1271;74233;-74
2022/01/22 05:44:26;;;;;;;17.40;14.10;;;;;;;-4.82;100.00;99144.42;105299;1271;68063;-74
2022/01/22 05:46:55;;;;;;;30.50;18.60;;;;;;;-4.95;100.00;99142.90;105426;1271;73262;-73
2022/01/22 05:49:24;;;;;;;;;;;;;;;-5.06;100.00;99152.79;105224;1271;62226;-73
2022/01/22 05:51:53;;;;;;;34.80;22.20;;;;;;;-5.17;100.00;99153.32;105201;1271;62075;-73
2022/01/22 05:59:42;;;;;;;28.60;19.00;;;;;;;-5.50;100.00;99164.95;105210;1271;73183;-73
2022/01/22 06:02:12;;;;;;;34.30;18.80;;;;;;;-5.60;100.00;99168.91;104957;1271;62095;-75
2022/01/22 06:04:40;;;;;;;30.20;19.40;;;;;;;-5.71;100.00;99175.84;105045;1271;62394;-76
2022/01/22 06:07:08;;;;;;;33.50;22.20;;;;;;;-5.82;100.00;99180.50;104957;1271;76360;-74
2022/01/22 06:09:39;;;;;;;33.30;23.30;;;;;;;-5.92;100.00;99181.01;104573;1271;1003800;-75
2022/01/22 06:14:35;;;;;;;42.30;27.90;;;;;;;-6.11;100.00;99188.41;105276;1271;62052;-76
2022/01/22 06:17:02;;;;;;;42.10;27.50;;;;;;;-6.21;100.00;99192.87;105236;1271;62182;-74
2022/01/22 06:19:29;;;;;;;44.00;28.70;;;;;;;-6.28;100.00;99199.42;105225;1271;76940;-74
2022/01/22 06:21:56;;;;;;;42.40;30.40;;;;;;;-6.35;100.00;99203.71;105185;1271;69319;-74
2022/01/22 06:24:23;;;;;;;51.50;32.70;;;;;;;-6.42;100.00;99214.40;105180;1271;73467;-73
2022/01/22 06:26:50;;;;;;;49.00;29.90;;;;;;;-6.47;100.00;99220.95;105164;1271;62088;-73
2022/01/22 06:29:19;;;;;;;50.00;33.10;;;;;;;-6.51;100.00;99228.88;104967;1271;63834;-74
2022/01/22 06:31:45;;;;;;;44.70;31.80;;;;;;;-6.57;100.00;99236.79;105304;1271;75859;-74
2022/01/22 06:34:12;;;;;;;48.20;31.40;;;;;;;-6.60;100.00;99237.98;105216;1271;70298;-73
2022/01/22 06:36:39;;;;;;;36.70;26.10;;;;;;;-6.61;100.00;99241.61;104888;1271;73326;-74
2022/01/22 06:39:14;;;;;;;43.70;29.20;;;;;;;-6.61;100.00;99242.64;105148;1271;62078;-74
2022/01/22 06:41:45;;;;;;;38.40;28.60;;;;;;;-6.64;100.00;99244.02;104926;1271;62161;-73
2022/01/22 06:44:24;;;;;;;40.60;29.20;;;;;;;-6.68;100.00;99243.47;105150;1270;76205;-75
2022/01/22 06:46:54;;;;;;;45.10;32.10;;;;;;;-6.70;100.00;99248.11;104412;1271;1016542;-74
2022/01/22 06:49:21;;;;;;;48.70;32.80;;;;;;;-6.72;100.00;99249.84;105309;1271;74201;-73
2022/01/22 06:51:49;;;;;;;62.90;36.30;;;;;;;-6.72;100.00;99251.21;105135;1271;61951;-75
2022/01/22 06:54:17;;;;;;;47.10;32.20;;;;;;;-6.70;100.00;99258.66;105199;1271;62054;-75
2022/01/22 06:56:44;;;;;;;52.00;34.60;;;;;;;-6.71;100.00;99257.27;105241;1271;77200;-75
2022/01/22 06:59:11;;;;;;;51.00;34.00;;;;;;;-6.69;100.00;99264.38;105144;1271;70197;-75
2022/01/22 07:01:38;;;;;;;53.50;34.80;;;;;;;-6.68;100.00;99266.62;105186;1271;73119;-74
2022/01/22 07:04:05;;;;;;;50.40;34.70;;;;;;;-6.66;100.00;99275.96;105173;1271;62553;-72
2022/01/22 07:06:32;;;;;;;54.10;36.80;;;;;;;-6.65;100.00;99278.21;104943;1271;62205;-73
2022/01/22 07:08:59;;;;;;;64.80;45.00;;;;;;;-6.61;100.00;99283.77;105182;1271;77283;-74
2022/01/22 07:11:25;;;;;;;76.90;49.70;;;;;;;-6.56;100.00;99283.45;104893;1271;70537;-74
2022/01/22 07:13:52;;;;;;;84.50;54.40;;;;;;;-6.49;100.00;99286.61;105157;1271;73440;-75
2022/01/22 07:16:19;;;;;;;74.80;50.70;;;;;;;-6.43;100.00;99290.28;105181;1271;62180;-75
2022/01/22 07:18:46;;;;;;;76.80;47.30;;;;;;;-6.41;100.00;99289.24;104971;1272;62207;-76
2022/01/22 07:21:19;;;;;;;80.00;47.60;;;;;;;-6.37;100.00;99289.63;105197;1271;76020;-74
2022/01/22 07:26:14;;;;;;;69.60;41.90;;;;;;;-6.20;100.00;99299.40;105163;1271;74275;-74
2022/01/22 07:28:42;;;;;;;66.30;39.90;;;;;;;-6.07;100.00;99303.09;105186;1271;62174;-74
2022/01/22 07:31:10;;;;;;;55.40;36.40;;;;;;;-5.92;100.00;99303.83;105160;1271;62177;-74
2022/01/22 07:33:36;;;;;;;55.20;35.30;;;;;;;-5.76;100.00;99300.08;105161;1271;76805;-74
2022/01/22 07:36:04;;;;;;;46.70;28.80;;;;;;;-5.59;100.00;99304.27;105179;1271;70160;-73
2022/01/22 07:38:31;;;;;;;44.40;28.80;;;;;;;-5.46;100.00;99303.27;105316;1271;73310;-73
2022/01/22 07:40:58;;;;;;;46.00;29.90;;;;;;;-5.34;100.00;99303.48;104939;1271;62516;-74
2022/01/22 07:43:24;;;;;;;37.10;23.00;;;;;;;-5.24;100.00;99305.56;105062;1271;62130;-74
2022/01/22 07:45:51;;;;;;;30.40;20.30;;;;;;;-5.14;100.00;99308.19;104924;1271;77117;-75
2022/01/22 07:48:18;;;;;;;31.10;20.90;;;;;;;-5.03;100.00;99307.16;105206;1271;70252;-74
2022/01/22 07:50:44;;;;;;;29.30;21.00;;;;;;;-4.87;100.00;99309.58;105212;1271;72218;-74
2022/01/22 07:53:11;;;;;;;30.70;20.80;;;;;;;-4.65;100.00;99307.84;105117;1271;62173;-74
2022/01/22 07:55:39;;;;;;;28.20;19.70;;;;;;;-4.45;100.00;99307.83;105198;1271;62115;-73
2022/01/22 07:58:06;;;;;;;26.50;19.20;;;;;;;-4.30;100.00;99305.71;105200;1271;76105;-73
2022/01/22 08:00:33;;;;;;;28.10;17.60;;;;;;;-4.20;100.00;99308.47;105100;1271;68236;-73
2022/01/22 08:02:59;;;;;;;29.70;18.60;;;;;;;-4.14;100.00;99314.52;104401;1271;1003824;-76
2022/01/22 08:05:26;;;;;;;26.10;17.20;;;;;;;-4.01;100.00;99311.54;105199;1271;62174;-75
2022/01/22 08:07:52;;;;;;;28.80;19.90;;;;;;;-3.85;100.00;99316.51;105174;1271;62479;-74
2022/01/22 08:10:19;;;;;;;26.70;17.60;;;;;;;-3.69;100.00;99326.88;105197;1271;77189;-73
2022/01/22 08:12:49;;;;;;;24.70;17.70;;;;;;;-3.56;100.00;99327.50;105147;1271;70300;-73
2022/01/22 08:15:17;;;;;;;26.20;17.00;;;;;;;-3.45;100.00;99329.19;105172;1271;74272;-75
2022/01/22 08:17:45;;;;;;;23.50;18.00;;;;;;;-3.34;100.00;99334.52;105198;1271;62167;-74
2022/01/22 08:20:14;;;;;;;28.60;18.00;;;;;;;-3.27;100.00;99331.70;105230;1271;62103;-75
2022/01/22 08:22:42;;;;;;;26.30;18.00;;;;;;;-3.17;100.00;99335.64;104916;1271;77183;-76
2022/01/22 08:25:10;;;;;;;27.40;17.10;;;;;;;-3.08;100.00;99345.84;104884;1271;70174;-74
2022/01/22 08:28:52;;;;;;;25.70;16.90;;;;;;;-2.95;100.00;99349.73;105253;1271;74523;-73
2022/01/22 08:30:35;;;;;;;23.00;15.90;;;;;;;-2.83;100.00;99351.40;105043;1271;62083;-73
2022/01/22 08:35:54;;;;;;;22.70;16.70;;;;;;;-2.57;100.00;99362.84;105188;1271;76950;-73
2022/01/22 08:38:25;;;;;;;26.50;17.30;;;;;;;-2.42;100.00;99363.42;102276;1271;1004134;-75
2022/01/22 08:40:52;;;;;;;24.70;17.40;;;;;;;-2.29;100.00;99363.30;105231;1271;73288;-74
2022/01/22 08:43:20;;;;;;;27.70;18.50;;;;;;;-2.16;100.00;99363.88;105244;1271;62178;-72
2022/01/22 08:45:50;;;;;;;18.70;15.00;;;;;;;-2.05;100.00;99370.22;105274;1271;62073;-73
2022/01/22 08:48:17;;;;;;;;;;;;;;;-1.94;100.00;99372.02;105090;1271;75596;-76
2022/01/22 08:50:44;;;;;;;29.20;18.80;;;;;;;-1.85;100.00;99371.75;105283;1271;69396;-73
2022/01/22 08:53:10;;;;;;;28.60;18.60;;;;;;;-1.74;100.00;99377.21;104980;1271;73312;-73
2022/01/22 08:55:37;;;;;;;25.70;17.60;;;;;;;-1.65;100.00;99376.41;105255;1271;62068;-76
2022/01/22 08:58:04;;;;;;;23.70;16.80;;;;;;;-1.60;100.00;99380.35;105242;1271;62182;-73
2022/01/22 09:00:32;;;;;;;18.80;15.30;;;;;;;-1.57;100.00;99382.22;105194;1271;75933;-72
2022/01/22 09:02:59;;;;;;;19.10;13.50;;;;;;;-1.50;100.00;99385.64;105252;1271;69213;-75
2022/01/22 09:05:32;;;;;;;20.70;14.40;;;;;;;-1.44;100.00;99382.60;105184;1271;73180;-74
2022/01/22 09:07:59;;;;;;;19.50;12.70;;;;;;;-1.35;100.00;99394.00;105081;1271;62117;-76
2022/01/22 09:10:26;;;;;;;14.60;11.50;;;;;;;-1.28;100.00;99403.84;105128;1271;61983;-74
2022/01/22 09:12:52;;;;;;;18.40;11.90;;;;;;;-1.24;100.00;99408.50;105050;1271;77273;-75
2022/01/22 09:15:19;;;;;;;15.70;11.10;;;;;;;-1.22;100.00;99413.19;105150;1271;69330;-75
2022/01/22 09:17:48;;;;;;;15.60;10.60;;;;;;;-1.25;100.00;99414.25;105095;1271;73473;-79
2022/01/22 09:20:31;;;;;;;15.70;11.10;;;;;;;-1.22;100.00;99414.92;105084;1271;62076;-78
2022/01/22 09:22:58;;;;;;;16.20;11.50;;;;;;;-1.20;100.00;99417.34;105097;1271;62085;-79
2022/01/22 09:25:25;;;;;;;19.40;12.10;;;;;;;-1.17;100.00;99418.86;105235;1271;74717;-78
2022/01/22 09:27:52;;;;;;;18.30;12.60;;;;;;;-1.13;100.00;99416.89;105090;1271;69299;-79
2022/01/22 09:30:18;;;;;;;18.30;12.40;;;;;;;-1.10;100.00;99422.95;104922;1271;73379;-80
2022/01/22 09:32:45;;;;;;;16.70;11.70;;;;;;;-1.05;100.00;99422.56;105147;1270;62171;-80
2022/01/22 09:35:12;;;;;;;16.40;11.90;;;;;;;-1.05;99.98;99423.43;105112;1271;62178;-78
2022/01/22 09:37:39;;;;;;;14.00;11.70;;;;;;;-1.02;100.00;99424.08;105119;1271;77148;-79
2022/01/22 09:40:06;;;;;;;15.50;10.90;;;;;;;-0.90;100.00;99414.86;105081;1271;69217;-79
2022/01/22 09:42:33;;;;;;;16.00;11.30;;;;;;;-0.84;99.98;99414.95;104902;1273;74236;-79
2022/01/22 09:45:02;;;;;;;17.80;12.60;;;;;;;-0.83;100.00;99412.84;104930;1271;62210;-79
2022/01/22 09:47:29;;;;;;;15.80;11.90;;;;;;;-0.84;100.00;99414.79;105139;1271;62008;-78
2022/01/22 09:49:56;;;;;;;17.20;12.40;;;;;;;-0.76;99.55;99410.48;105135;1271;76950;-78
2022/01/22 09:52:24;;;;;;;18.10;12.10;;;;;;;-0.81;99.49;99415.44;105101;1271;69212;-81
2022/01/22 09:54:51;;;;;;;19.20;13.70;;;;;;;-0.73;98.70;99416.71;105112;1271;74245;-82
2022/01/22 09:57:17;;;;;;;22.00;14.60;;;;;;;-0.55;98.34;99415.39;105167;1271;61984;-81
2022/01/22 09:59:44;;;;;;;18.80;12.00;;;;;;;-0.44;98.19;99417.84;105122;1271;62121;-80
2022/01/22 10:02:18;;;;;;;16.60;12.10;;;;;;;-0.34;98.57;99416.98;104778;1271;77007;-80
2022/01/22 10:04:48;;;;;;;21.80;12.90;;;;;;;-0.26;97.60;99420.16;104938;1271;69145;-80
2022/01/22 10:07:21;;;;;;;18.10;12.90;;;;;;;-0.20;97.59;99418.67;105249;1271;73321;-80
2022/01/22 10:09:58;;;;;;;17.30;12.00;;;;;;;-0.14;98.06;99419.98;105379;1271;62171;-79
2022/01/22 10:12:27;;;;;;;19.20;12.70;;;;;;;-0.21;97.18;99424.10;105232;1271;62358;-83
2022/01/22 10:15:12;;;;;;;20.70;13.00;;;;;;;-0.31;96.18;99427.59;105628;1271;76424;-81
2022/01/22 10:17:45;;;;;;;17.50;12.80;;;;;;;-0.39;95.52;99428.95;105251;1271;69134;-79
2022/01/22 10:20:41;;;;;;;19.70;13.10;;;;;;;-0.33;95.91;99437.58;105182;1271;74219;-80
2022/01/22 10:23:21;;;;;;;17.30;11.70;;;;;;;-0.17;94.97;99427.70;104717;1275;62387;-81
2022/01/22 10:25:54;;;;;;;;;;;;;;;-0.08;93.81;99434.36;104915;1274;61972;-80
2022/01/22 10:28:23;;;;;;;20.30;12.10;;;;;;;-0.01;92.82;99439.31;104914;1274;76120;-80
2022/01/22 10:30:56;;;;;;;15.20;10.20;;;;;;;0.10;92.68;99442.29;105111;1274;69438;-81
2022/01/22 10:33:33;;;;;;;18.00;11.60;;;;;;;0.18;91.73;99446.33;105406;1276;74180;-79
2022/01/22 10:36:16;;;;;;;16.50;10.70;;;;;;;0.32;92.29;99448.19;105019;1274;62159;-82
2022/01/22 10:38:52;;;;;;;17.30;10.50;;;;;;;0.35;91.48;99444.98;105218;1274;62065;-80
2022/01/22 10:41:40;;;;;;;13.50;9.60;;;;;;;0.23;90.35;99453.05;105220;1274;77324;-81
2022/01/22 10:44:10;;;;;;;14.80;9.90;;;;;;;0.08;90.04;99456.46;105026;1274;67305;-82
2022/01/22 10:46:49;;;;;;;17.30;10.40;;;;;;;0.08;91.33;99461.19;105062;1274;73533;-80
2022/01/22 10:49:19;;;;;;;16.20;10.40;;;;;;;0.09;89.85;99459.92;105185;1274;62153;-82
2022/01/22 10:52:02;;;;;;;17.60;11.20;;;;;;;0.01;89.23;99458.14;105390;1274;62163;-81
2022/01/22 10:54:35;;;;;;;16.60;11.00;;;;;;;-0.13;89.68;99463.45;105346;1271;77290;-80
2022/01/22 10:57:14;;;;;;;16.30;9.50;;;;;;;-0.07;90.83;99460.20;105562;1271;69375;-85
2022/01/22 10:59:52;;;;;;;15.40;9.60;;;;;;;0.03;89.99;99461.96;105500;1271;74147;-80
2022/01/22 11:02:32;;;;;;;15.70;10.00;;;;;;;0.03;89.90;99455.31;105992;1271;62106;-81
2022/01/22 11:04:59;;;;;;;23.70;12.50;;;;;;;0.13;89.59;99454.81;105859;1271;62063;-79
2022/01/22 11:07:26;;;;;;;18.60;11.20;;;;;;;0.24;89.15;99456.88;105723;1271;76300;-80
2022/01/22 11:09:53;;;;;;;19.80;11.80;;;;;;;0.27;88.43;99458.77;105891;1271;70504;-82
2022/01/22 11:12:20;;;;;;;19.70;12.30;;;;;;;0.28;89.19;99460.83;105203;1271;74127;-79
2022/01/22 11:14:47;;;;;;;17.00;10.00;;;;;;;0.35;89.35;99453.19;105263;1271;62056;-80
2022/01/22 11:17:15;;;;;;;22.60;12.70;;;;;;;0.37;89.33;99450.02;105275;1271;62094;-79
2022/01/22 11:19:45;;;;;;;15.70;9.80;;;;;;;0.41;89.68;99449.58;105280;1271;77307;-81
2022/01/22 11:22:15;;;;;;;11.80;9.40;;;;;;;0.48;88.45;99453.83;105047;1271;67758;-79
2022/01/22 11:24:47;;;;;;;17.70;10.40;;;;;;;0.52;89.09;99456.37;105486;1271;74908;-78
2022/01/22 11:27:20;;;;;;;13.40;9.20;;;;;;;0.62;89.54;99454.61;105619;1271;62189;-81
2022/01/22 11:29:48;;;;;;;17.00;11.10;;;;;;;0.65;88.29;99458.76;105258;1271;62039;-80
2022/01/22 11:32:17;;;;;;;15.90;9.80;;;;;;;0.60;88.73;99466.54;105199;1271;75639;-80
2022/01/22 11:34:47;;;;;;;16.50;10.60;;;;;;;0.52;87.85;99477.69;105350;1271;69525;-79
2022/01/22 11:37:16;;;;;;;15.90;10.30;;;;;;;0.42;87.66;99479.64;105672;1271;73849;-79
2022/01/22 11:39:43;;;;;;;16.80;9.90;;;;;;;0.37;87.95;99483.02;105593;1271;62120;-80
2022/01/22 11:42:10;;;;;;;18.20;10.50;;;;;;;0.39;88.29;99486.30;105642;1270;62062;-79
2022/01/22 11:44:51;;;;;;;15.90;9.60;;;;;;;0.41;88.35;99487.33;105666;1271;77002;-80
2022/01/22 11:47:20;;;;;;;18.20;9.70;;;;;;;0.50;89.34;99494.34;105930;1271;69629;-80
2022/01/22 11:50:08;;;;;;;15.00;9.50;;;;;;;0.57;88.10;99498.05;105889;1271;1003031;-81
2022/01/22 11:52:39;;;;;;;18.70;11.50;;;;;;;0.55;87.94;99505.63;106069;1271;62121;-81
2022/01/22 11:55:12;;;;;;;17.70;9.60;;;;;;;0.46;88.41;99515.40;106417;1271;62135;-81
2022/01/22 11:57:40;;;;;;;15.30;9.00;;;;;;;0.36;87.73;99515.56;108396;1271;76039;-80
2022/01/22 12:00:28;;;;;;;16.30;8.60;;;;;;;0.22;87.90;99527.17;108480;1270;70505;-81
2022/01/22 12:03:07;;;;;;;13.10;8.30;;;;;;;0.12;88.42;99531.70;108443;1270;73165;-80
2022/01/22 12:05:58;;;;;;;14.20;8.50;;;;;;;0.01;87.54;99539.73;106967;1271;62110;-79
2022/01/22 12:08:25;;;;;;;17.10;9.60;;;;;;;-0.08;88.43;99540.73;105672;1271;62274;-81
2022/01/22 12:16:40;;;;;;;11.90;8.00;;;;;;;-0.07;88.13;99537.58;105137;1271;72683;-80
2022/01/22 12:19:32;;;;;;;15.90;9.40;;;;;;;-0.03;87.79;99544.67;105275;1271;62121;-81
2022/01/22 12:21:59;;;;;;;14.90;8.40;;;;;;;-0.05;87.91;99544.36;105295;1271;62124;-80
2022/01/22 12:24:32;;;;;;;15.60;8.90;;;;;;;-0.04;87.73;99546.44;105208;1271;76648;-79
2022/01/22 12:27:01;;;;;;;12.40;7.20;;;;;;;-0.03;86.97;99549.39;105228;1270;70127;-78
2022/01/22 12:29:36;;;;;;;13.30;8.90;;;;;;;-0.09;86.99;99563.64;105099;1271;73126;-81
2022/01/22 12:32:09;;;;;;;12.70;8.40;;;;;;;-0.22;87.43;99570.09;105261;1271;62188;-79
2022/01/22 12:34:57;;;;;;;13.80;8.70;;;;;;;-0.36;87.36;99574.31;105285;1271;61924;-80
2022/01/22 12:37:25;;;;;;;12.90;8.20;;;;;;;-0.48;87.94;99582.32;105434;1271;76191;-81
2022/01/22 12:39:55;;;;;;;14.30;8.80;;;;;;;-0.53;88.55;99586.40;104997;1271;69181;-80
2022/01/22 12:42:45;;;;;;;15.90;8.60;;;;;;;-0.58;88.95;99593.61;105192;1271;73365;-82
2022/01/22 12:45:12;;;;;;;24.60;13.30;;;;;;;-0.60;89.43;99600.80;105170;1271;62065;-80
2022/01/22 12:47:46;;;;;;;21.80;11.40;;;;;;;-0.69;89.63;99602.13;105208;1271;62161;-80
2022/01/22 12:50:13;;;;;;;25.80;14.50;;;;;;;-0.84;90.10;99603.16;105365;1271;77259;-80
2022/01/22 12:52:45;;;;;;;19.50;9.70;;;;;;;-0.93;90.78;99612.86;105191;1271;69138;-80
2022/01/22 12:55:37;;;;;;;17.80;9.40;;;;;;;-0.98;91.52;99620.75;105442;1271;73345;-80
2022/01/22 12:58:05;;;;;;;15.70;9.90;;;;;;;-1.07;91.87;99623.81;105254;1271;62149;-79
2022/01/22 13:00:31;;;;;;;25.60;13.70;;;;;;;-1.16;92.32;99624.94;105574;1271;62189;-81